sensor_id;sensor_type;location;lat;lon;timestamp;P1;durP1;ratioP1;P2;durP2;ratioP2
14992;SDS011;7592;51.088;13.732;2023-02-19T00:01:06;5.20;;;3.00;;
14992;SDS011;7592;51.088;13.732;2023-02-19T00:06:00;3.23;;;2.80;;
14992;SDS011;7592;51.088;13.732;2023-02-19T00:10:53;3.90;;;3.30;;
14992;SDS011;7592;51.088;13.732;2023-02-19T00:15:52;3.97;;;3.00;;
14992;SDS011;7592;51.088;13.732;2023-02-19T00:20:44;4.00;;;2.77;;
14992;SDS011;7592;51.088;13.732;2023-02-19T00:25:36;5.43;;;3.00;;
14992;SDS011;7592;51.088;13.732;2023-02-19T00:30:28;4.07;;;2.80;;
14992;SDS011;7592;51.088;13.732;2023-02-19T00:35:22;4.53;;;2.17;;
14992;SDS011;7592;51.088;13.732;2023-02-19T00:40:14;5.77;;;4.03;;
14992;SDS011;7592;51.088;13.732;2023-02-19T00:45:06;3.60;;;1.90;;
14992;SDS011;7592;51.088;13.732;2023-02-19T00:49:59;2.80;;;1.97;;
14992;SDS011;7592;51.088;13.732;2023-02-19T00:54:51;4.27;;;2.93;;
14992;SDS011;7592;51.088;13.732;2023-02-19T00:59:44;6.27;;;2.70;;
14992;SDS011;7592;51.088;13.732;2023-02-19T01:04:36;2.47;;;2.13;;
14992;SDS011;7592;51.088;13.732;2023-02-19T01:09:28;2.43;;;2.07;;
14992;SDS011;7592;51.088;13.732;2023-02-19T01:14:20;3.00;;;2.30;;
14992;SDS011;7592;51.088;13.732;2023-02-19T01:19:12;5.40;;;2.17;;
14992;SDS011;7592;51.088;13.732;2023-02-19T01:24:04;4.33;;;2.50;;
14992;SDS011;7592;51.088;13.732;2023-02-19T01:28:57;2.57;;;1.97;;
14992;SDS011;7592;51.088;13.732;2023-02-19T01:33:53;3.03;;;2.10;;
14992;SDS011;7592;51.088;13.732;2023-02-19T01:38:46;2.43;;;1.90;;
14992;SDS011;7592;51.088;13.732;2023-02-19T01:48:52;2.23;;;2.03;;
14992;SDS011;7592;51.088;13.732;2023-02-19T01:53:46;2.50;;;1.87;;
14992;SDS011;7592;51.088;13.732;2023-02-19T01:58:45;1.87;;;1.70;;
14992;SDS011;7592;51.088;13.732;2023-02-19T02:03:38;1.93;;;1.83;;
14992;SDS011;7592;51.088;13.732;2023-02-19T02:15:02;2.00;;;1.60;;
14992;SDS011;7592;51.088;13.732;2023-02-19T02:35:55;2.10;;;1.40;;
14992;SDS011;7592;51.088;13.732;2023-02-19T02:40:52;1.43;;;1.20;;
14992;SDS011;7592;51.088;13.732;2023-02-19T02:45:45;2.57;;;1.30;;
14992;SDS011;7592;51.088;13.732;2023-02-19T02:51:03;1.73;;;1.10;;
14992;SDS011;7592;51.088;13.732;2023-02-19T02:56:03;1.57;;;1.10;;
14992;SDS011;7592;51.088;13.732;2023-02-19T03:01:01;0.80;;;0.70;;
14992;SDS011;7592;51.088;13.732;2023-02-19T03:06:16;0.70;;;0.70;;
14992;SDS011;7592;51.088;13.732;2023-02-19T03:11:12;0.57;;;0.57;;
14992;SDS011;7592;51.088;13.732;2023-02-19T03:16:24;1.60;;;0.67;;
14992;SDS011;7592;51.088;13.732;2023-02-19T03:21:41;0.50;;;0.47;;
14992;SDS011;7592;51.088;13.732;2023-02-19T03:26:36;0.47;;;0.47;;
14992;SDS011;7592;51.088;13.732;2023-02-19T03:31:29;0.73;;;0.60;;
14992;SDS011;7592;51.088;13.732;2023-02-19T03:36:26;0.47;;;0.47;;
14992;SDS011;7592;51.088;13.732;2023-02-19T03:47:02;0.63;;;0.63;;
14992;SDS011;7592;51.088;13.732;2023-02-19T03:52:10;0.90;;;0.70;;
14992;SDS011;7592;51.088;13.732;2023-02-19T03:57:22;0.50;;;0.50;;
14992;SDS011;7592;51.088;13.732;2023-02-19T04:07:25;0.60;;;0.60;;
14992;SDS011;7592;51.088;13.732;2023-02-19T04:12:18;1.63;;;0.70;;
14992;SDS011;7592;51.088;13.732;2023-02-19T04:17:16;1.57;;;0.60;;
14992;SDS011;7592;51.088;13.732;2023-02-19T04:22:14;0.70;;;0.70;;
14992;SDS011;7592;51.088;13.732;2023-02-19T04:27:07;0.70;;;0.53;;
14992;SDS011;7592;51.088;13.732;2023-02-19T04:32:00;0.70;;;0.40;;
14992;SDS011;7592;51.088;13.732;2023-02-19T04:36:53;0.47;;;0.40;;
14992;SDS011;7592;51.088;13.732;2023-02-19T04:41:45;1.33;;;1.00;;
14992;SDS011;7592;51.088;13.732;2023-02-19T04:46:38;2.13;;;0.47;;
14992;SDS011;7592;51.088;13.732;2023-02-19T04:51:33;0.40;;;0.40;;
14992;SDS011;7592;51.088;13.732;2023-02-19T04:56:25;0.43;;;0.33;;
14992;SDS011;7592;51.088;13.732;2023-02-19T05:01:17;1.13;;;0.30;;
14992;SDS011;7592;51.088;13.732;2023-02-19T05:06:10;0.57;;;0.40;;
14992;SDS011;7592;51.088;13.732;2023-02-19T05:11:04;0.23;;;0.23;;
14992;SDS011;7592;51.088;13.732;2023-02-19T05:16:02;0.57;;;0.40;;
14992;SDS011;7592;51.088;13.732;2023-02-19T05:20:57;0.10;;;0.10;;
14992;SDS011;7592;51.088;13.732;2023-02-19T05:25:49;0.30;;;0.30;;
14992;SDS011;7592;51.088;13.732;2023-02-19T05:30:45;0.33;;;0.10;;
14992;SDS011;7592;51.088;13.732;2023-02-19T05:35:40;0.17;;;0.17;;
14992;SDS011;7592;51.088;13.732;2023-02-19T05:40:33;0.23;;;0.20;;
14992;SDS011;7592;51.088;13.732;2023-02-19T05:45:25;9.07;;;2.57;;
14992;SDS011;7592;51.088;13.732;2023-02-19T05:50:18;17.77;;;6.00;;
14992;SDS011;7592;51.088;13.732;2023-02-19T05:55:11;7.90;;;3.40;;
14992;SDS011;7592;51.088;13.732;2023-02-19T06:00:03;36.63;;;11.63;;
14992;SDS011;7592;51.088;13.732;2023-02-19T06:05:02;8.27;;;3.27;;
14992;SDS011;7592;51.088;13.732;2023-02-19T06:09:56;1.50;;;0.97;;
14992;SDS011;7592;51.088;13.732;2023-02-19T06:14:48;9.07;;;3.80;;
14992;SDS011;7592;51.088;13.732;2023-02-19T06:19:41;1.13;;;0.10;;
14992;SDS011;7592;51.088;13.732;2023-02-19T06:24:33;0.13;;;0.13;;
14992;SDS011;7592;51.088;13.732;2023-02-19T06:29:26;0.30;;;0.13;;
14992;SDS011;7592;51.088;13.732;2023-02-19T06:41:21;0.53;;;0.40;;
14992;SDS011;7592;51.088;13.732;2023-02-19T06:46:13;0.80;;;0.80;;
14992;SDS011;7592;51.088;13.732;2023-02-19T06:51:05;0.30;;;0.23;;
14992;SDS011;7592;51.088;13.732;2023-02-19T06:56:02;1.97;;;0.30;;
14992;SDS011;7592;51.088;13.732;2023-02-19T07:00:56;0.40;;;0.40;;
14992;SDS011;7592;51.088;13.732;2023-02-19T07:05:49;0.40;;;0.40;;
14992;SDS011;7592;51.088;13.732;2023-02-19T07:10:42;0.30;;;0.30;;
14992;SDS011;7592;51.088;13.732;2023-02-19T07:15:35;1.30;;;0.60;;
14992;SDS011;7592;51.088;13.732;2023-02-19T07:20:27;1.67;;;1.57;;
14992;SDS011;7592;51.088;13.732;2023-02-19T07:25:19;0.50;;;0.50;;
14992;SDS011;7592;51.088;13.732;2023-02-19T07:30:12;0.60;;;0.60;;
14992;SDS011;7592;51.088;13.732;2023-02-19T07:35:04;1.90;;;1.80;;
14992;SDS011;7592;51.088;13.732;2023-02-19T07:39:56;0.87;;;0.70;;
14992;SDS011;7592;51.088;13.732;2023-02-19T07:44:48;1.20;;;1.10;;
14992;SDS011;7592;51.088;13.732;2023-02-19T07:49:40;0.67;;;0.67;;
14992;SDS011;7592;51.088;13.732;2023-02-19T07:54:32;0.40;;;0.40;;
14992;SDS011;7592;51.088;13.732;2023-02-19T07:59:24;0.87;;;0.87;;
14992;SDS011;7592;51.088;13.732;2023-02-19T08:04:16;0.60;;;0.60;;
14992;SDS011;7592;51.088;13.732;2023-02-19T08:09:09;0.87;;;0.87;;
14992;SDS011;7592;51.088;13.732;2023-02-19T08:14:01;0.60;;;0.60;;
14992;SDS011;7592;51.088;13.732;2023-02-19T08:18:53;0.93;;;0.87;;
14992;SDS011;7592;51.088;13.732;2023-02-19T08:23:45;2.57;;;2.37;;
14992;SDS011;7592;51.088;13.732;2023-02-19T08:28:41;1.17;;;0.50;;
14992;SDS011;7592;51.088;13.732;2023-02-19T08:33:33;0.50;;;0.50;;
14992;SDS011;7592;51.088;13.732;2023-02-19T08:38:26;1.27;;;1.17;;
14992;SDS011;7592;51.088;13.732;2023-02-19T08:43:18;1.30;;;1.20;;
14992;SDS011;7592;51.088;13.732;2023-02-19T08:48:10;1.23;;;1.13;;
14992;SDS011;7592;51.088;13.732;2023-02-19T08:53:03;1.13;;;0.93;;
14992;SDS011;7592;51.088;13.732;2023-02-19T08:57:57;1.20;;;1.10;;
14992;SDS011;7592;51.088;13.732;2023-02-19T09:02:56;1.73;;;1.47;;
14992;SDS011;7592;51.088;13.732;2023-02-19T09:07:48;3.93;;;2.93;;
14992;SDS011;7592;51.088;13.732;2023-02-19T09:12:41;1.20;;;1.10;;
14992;SDS011;7592;51.088;13.732;2023-02-19T09:17:33;0.93;;;0.90;;
14992;SDS011;7592;51.088;13.732;2023-02-19T09:22:25;2.20;;;1.20;;
14992;SDS011;7592;51.088;13.732;2023-02-19T09:27:18;0.83;;;0.73;;
14992;SDS011;7592;51.088;13.732;2023-02-19T09:32:11;1.50;;;1.10;;
14992;SDS011;7592;51.088;13.732;2023-02-19T09:37:07;0.60;;;0.57;;
14992;SDS011;7592;51.088;13.732;2023-02-19T09:42:09;0.90;;;0.83;;
14992;SDS011;7592;51.088;13.732;2023-02-19T09:47:16;1.50;;;1.03;;
14992;SDS011;7592;51.088;13.732;2023-02-19T09:57:32;1.03;;;0.80;;
14992;SDS011;7592;51.088;13.732;2023-02-19T10:02:26;1.57;;;1.10;;
14992;SDS011;7592;51.088;13.732;2023-02-19T10:07:25;1.07;;;0.53;;
14992;SDS011;7592;51.088;13.732;2023-02-19T10:12:28;1.40;;;0.60;;
14992;SDS011;7592;51.088;13.732;2023-02-19T10:17:22;0.73;;;0.53;;
14992;SDS011;7592;51.088;13.732;2023-02-19T10:22:17;0.63;;;0.50;;
14992;SDS011;7592;51.088;13.732;2023-02-19T10:27:11;0.83;;;0.33;;
14992;SDS011;7592;51.088;13.732;2023-02-19T10:32:20;0.80;;;0.40;;
14992;SDS011;7592;51.088;13.732;2023-02-19T10:37:17;1.00;;;0.70;;
14992;SDS011;7592;51.088;13.732;2023-02-19T10:42:13;0.40;;;0.40;;
14992;SDS011;7592;51.088;13.732;2023-02-19T10:47:07;1.90;;;0.67;;
14992;SDS011;7592;51.088;13.732;2023-02-19T10:57:33;2.10;;;1.17;;
14992;SDS011;7592;51.088;13.732;2023-02-19T11:02:31;1.07;;;0.70;;
14992;SDS011;7592;51.088;13.732;2023-02-19T11:07:23;1.20;;;1.07;;
14992;SDS011;7592;51.088;13.732;2023-02-19T11:12:22;0.80;;;0.50;;
14992;SDS011;7592;51.088;13.732;2023-02-19T11:17:24;1.40;;;0.60;;
14992;SDS011;7592;51.088;13.732;2023-02-19T11:22:28;1.13;;;0.73;;
14992;SDS011;7592;51.088;13.732;2023-02-19T11:27:23;4.53;;;1.03;;
14992;SDS011;7592;51.088;13.732;2023-02-19T11:37:11;0.90;;;0.53;;
14992;SDS011;7592;51.088;13.732;2023-02-19T11:52:49;2.37;;;1.20;;
14992;SDS011;7592;51.088;13.732;2023-02-19T11:57:48;4.43;;;2.10;;
14992;SDS011;7592;51.088;13.732;2023-02-19T12:38:30;2.97;;;0.57;;
14992;SDS011;7592;51.088;13.732;2023-02-19T12:43:26;2.60;;;0.60;;
14992;SDS011;7592;51.088;13.732;2023-02-19T12:53:38;1.07;;;0.53;;
14992;SDS011;7592;51.088;13.732;2023-02-19T12:58:47;1.67;;;0.53;;
14992;SDS011;7592;51.088;13.732;2023-02-19T13:04:04;6.27;;;1.50;;
14992;SDS011;7592;51.088;13.732;2023-02-19T13:09:34;1.57;;;0.47;;
14992;SDS011;7592;51.088;13.732;2023-02-19T13:14:35;0.77;;;0.50;;
14992;SDS011;7592;51.088;13.732;2023-02-19T13:19:33;1.80;;;0.50;;
14992;SDS011;7592;51.088;13.732;2023-02-19T13:24:29;3.10;;;0.60;;
14992;SDS011;7592;51.088;13.732;2023-02-19T13:45:21;3.13;;;0.60;;
14992;SDS011;7592;51.088;13.732;2023-02-19T13:50:19;2.23;;;0.57;;
14992;SDS011;7592;51.088;13.732;2023-02-19T13:55:42;3.87;;;0.50;;
14992;SDS011;7592;51.088;13.732;2023-02-19T14:00:50;3.20;;;0.40;;
14992;SDS011;7592;51.088;13.732;2023-02-19T14:10:52;0.83;;;0.57;;
14992;SDS011;7592;51.088;13.732;2023-02-19T14:15:48;1.83;;;0.40;;
14992;SDS011;7592;51.088;13.732;2023-02-19T14:20:42;4.77;;;0.90;;
14992;SDS011;7592;51.088;13.732;2023-02-19T14:30:33;2.00;;;1.00;;
14992;SDS011;7592;51.088;13.732;2023-02-19T14:35:35;5.67;;;0.77;;
14992;SDS011;7592;51.088;13.732;2023-02-19T14:40:37;3.67;;;1.03;;
14992;SDS011;7592;51.088;13.732;2023-02-19T14:45:36;3.47;;;1.20;;
14992;SDS011;7592;51.088;13.732;2023-02-19T14:50:35;1.23;;;0.57;;
14992;SDS011;7592;51.088;13.732;2023-02-19T14:55:28;2.10;;;0.73;;
14992;SDS011;7592;51.088;13.732;2023-02-19T15:00:28;2.67;;;0.40;;
14992;SDS011;7592;51.088;13.732;2023-02-19T15:05:25;1.97;;;0.70;;
14992;SDS011;7592;51.088;13.732;2023-02-19T15:10:19;2.07;;;0.80;;
14992;SDS011;7592;51.088;13.732;2023-02-19T15:15:15;1.50;;;0.60;;
14992;SDS011;7592;51.088;13.732;2023-02-19T15:20:21;2.40;;;0.70;;
14992;SDS011;7592;51.088;13.732;2023-02-19T15:25:20;2.47;;;0.80;;
14992;SDS011;7592;51.088;13.732;2023-02-19T15:30:24;4.87;;;0.93;;
14992;SDS011;7592;51.088;13.732;2023-02-19T15:35:21;3.93;;;0.60;;
14992;SDS011;7592;51.088;13.732;2023-02-19T15:40:15;1.07;;;0.57;;
14992;SDS011;7592;51.088;13.732;2023-02-19T15:45:15;1.13;;;0.57;;
14992;SDS011;7592;51.088;13.732;2023-02-19T16:01:00;0.80;;;0.80;;
14992;SDS011;7592;51.088;13.732;2023-02-19T16:06:00;2.67;;;0.80;;
14992;SDS011;7592;51.088;13.732;2023-02-19T16:10:56;1.43;;;0.60;;
14992;SDS011;7592;51.088;13.732;2023-02-19T16:20:51;2.73;;;0.80;;
14992;SDS011;7592;51.088;13.732;2023-02-19T16:25:43;4.27;;;0.93;;
14992;SDS011;7592;51.088;13.732;2023-02-19T16:30:38;2.50;;;1.40;;
14992;SDS011;7592;51.088;13.732;2023-02-19T16:35:35;1.50;;;1.03;;
14992;SDS011;7592;51.088;13.732;2023-02-19T16:45:47;5.73;;;1.93;;
14992;SDS011;7592;51.088;13.732;2023-02-19T16:50:39;2.90;;;2.50;;
14992;SDS011;7592;51.088;13.732;2023-02-19T16:55:32;3.73;;;2.20;;
14992;SDS011;7592;51.088;13.732;2023-02-19T17:00:28;6.43;;;2.30;;
14992;SDS011;7592;51.088;13.732;2023-02-19T17:05:22;4.07;;;1.70;;
14992;SDS011;7592;51.088;13.732;2023-02-19T17:10:20;4.20;;;1.27;;
14992;SDS011;7592;51.088;13.732;2023-02-19T17:15:14;2.73;;;1.50;;
14992;SDS011;7592;51.088;13.732;2023-02-19T17:25:08;4.00;;;2.10;;
14992;SDS011;7592;51.088;13.732;2023-02-19T17:30:00;3.07;;;2.13;;
14992;SDS011;7592;51.088;13.732;2023-02-19T17:34:52;4.77;;;2.63;;
14992;SDS011;7592;51.088;13.732;2023-02-19T17:39:44;5.47;;;2.87;;
14992;SDS011;7592;51.088;13.732;2023-02-19T17:44:36;6.13;;;3.07;;
14992;SDS011;7592;51.088;13.732;2023-02-19T17:49:28;4.70;;;3.37;;
14992;SDS011;7592;51.088;13.732;2023-02-19T17:54:20;6.40;;;3.50;;
14992;SDS011;7592;51.088;13.732;2023-02-19T17:59:12;9.60;;;8.13;;
14992;SDS011;7592;51.088;13.732;2023-02-19T18:04:06;25.87;;;20.73;;
14992;SDS011;7592;51.088;13.732;2023-02-19T18:08:58;15.90;;;12.77;;
14992;SDS011;7592;51.088;13.732;2023-02-19T18:13:51;10.90;;;6.10;;
14992;SDS011;7592;51.088;13.732;2023-02-19T18:18:43;8.20;;;5.37;;
14992;SDS011;7592;51.088;13.732;2023-02-19T18:23:35;6.53;;;4.47;;
14992;SDS011;7592;51.088;13.732;2023-02-19T18:28:28;7.10;;;4.50;;
14992;SDS011;7592;51.088;13.732;2023-02-19T18:33:20;7.20;;;4.13;;
14992;SDS011;7592;51.088;13.732;2023-02-19T18:38:12;7.93;;;5.30;;
14992;SDS011;7592;51.088;13.732;2023-02-19T18:43:05;6.00;;;4.53;;
14992;SDS011;7592;51.088;13.732;2023-02-19T18:47:57;9.33;;;6.03;;
14992;SDS011;7592;51.088;13.732;2023-02-19T18:52:49;11.83;;;7.10;;
14992;SDS011;7592;51.088;13.732;2023-02-19T18:57:42;14.30;;;8.23;;
14992;SDS011;7592;51.088;13.732;2023-02-19T19:02:34;12.33;;;6.73;;
14992;SDS011;7592;51.088;13.732;2023-02-19T19:07:39;12.43;;;5.77;;
14992;SDS011;7592;51.088;13.732;2023-02-19T19:12:32;6.33;;;4.43;;
14992;SDS011;7592;51.088;13.732;2023-02-19T19:17:24;7.57;;;4.10;;
14992;SDS011;7592;51.088;13.732;2023-02-19T19:22:17;4.97;;;4.50;;
14992;SDS011;7592;51.088;13.732;2023-02-19T19:27:13;5.37;;;4.33;;
14992;SDS011;7592;51.088;13.732;2023-02-19T19:32:05;8.87;;;5.33;;
14992;SDS011;7592;51.088;13.732;2023-02-19T19:36:59;8.07;;;4.67;;
14992;SDS011;7592;51.088;13.732;2023-02-19T19:41:54;8.47;;;5.13;;
14992;SDS011;7592;51.088;13.732;2023-02-19T19:46:47;7.00;;;4.50;;
14992;SDS011;7592;51.088;13.732;2023-02-19T19:51:39;7.27;;;5.80;;
14992;SDS011;7592;51.088;13.732;2023-02-19T19:56:31;14.83;;;13.20;;
14992;SDS011;7592;51.088;13.732;2023-02-19T20:01:30;17.87;;;13.57;;
14992;SDS011;7592;51.088;13.732;2023-02-19T20:06:26;17.80;;;11.70;;
14992;SDS011;7592;51.088;13.732;2023-02-19T20:11:21;5.97;;;4.60;;
14992;SDS011;7592;51.088;13.732;2023-02-19T20:16:16;6.43;;;5.37;;
14992;SDS011;7592;51.088;13.732;2023-02-19T20:22:03;11.03;;;6.10;;
14992;SDS011;7592;51.088;13.732;2023-02-19T20:26:59;7.40;;;6.07;;
14992;SDS011;7592;51.088;13.732;2023-02-19T20:31:53;10.73;;;7.03;;
14992;SDS011;7592;51.088;13.732;2023-02-19T20:36:46;10.03;;;7.30;;
14992;SDS011;7592;51.088;13.732;2023-02-19T20:41:39;14.20;;;8.73;;
14992;SDS011;7592;51.088;13.732;2023-02-19T20:46:42;12.90;;;8.90;;
14992;SDS011;7592;51.088;13.732;2023-02-19T20:51:49;11.10;;;6.90;;
14992;SDS011;7592;51.088;13.732;2023-02-19T20:56:44;11.80;;;8.17;;
14992;SDS011;7592;51.088;13.732;2023-02-19T21:01:41;20.13;;;13.33;;
14992;SDS011;7592;51.088;13.732;2023-02-19T21:06:33;16.27;;;9.33;;
14992;SDS011;7592;51.088;13.732;2023-02-19T21:11:25;15.17;;;9.33;;
14992;SDS011;7592;51.088;13.732;2023-02-19T21:16:17;12.20;;;9.03;;
14992;SDS011;7592;51.088;13.732;2023-02-19T21:21:09;21.23;;;13.07;;
14992;SDS011;7592;51.088;13.732;2023-02-19T21:26:09;28.10;;;18.13;;
14992;SDS011;7592;51.088;13.732;2023-02-19T21:31:08;7.97;;;5.63;;
14992;SDS011;7592;51.088;13.732;2023-02-19T21:36:08;9.23;;;5.13;;
14992;SDS011;7592;51.088;13.732;2023-02-19T21:41:05;7.27;;;5.80;;
14992;SDS011;7592;51.088;13.732;2023-02-19T21:45:57;10.07;;;5.70;;
14992;SDS011;7592;51.088;13.732;2023-02-19T21:50:49;7.23;;;4.87;;
14992;SDS011;7592;51.088;13.732;2023-02-19T21:55:41;12.73;;;7.93;;
14992;SDS011;7592;51.088;13.732;2023-02-19T22:00:48;20.90;;;11.87;;
14992;SDS011;7592;51.088;13.732;2023-02-19T22:05:40;19.40;;;12.13;;
14992;SDS011;7592;51.088;13.732;2023-02-19T22:10:32;11.53;;;6.30;;
14992;SDS011;7592;51.088;13.732;2023-02-19T22:15:25;16.43;;;10.20;;
14992;SDS011;7592;51.088;13.732;2023-02-19T22:20:17;8.37;;;4.90;;
14992;SDS011;7592;51.088;13.732;2023-02-19T22:25:09;12.03;;;6.27;;
14992;SDS011;7592;51.088;13.732;2023-02-19T22:30:09;14.63;;;8.20;;
14992;SDS011;7592;51.088;13.732;2023-02-19T22:35:06;8.33;;;5.73;;
14992;SDS011;7592;51.088;13.732;2023-02-19T22:39:58;89.60;;;44.57;;
14992;SDS011;7592;51.088;13.732;2023-02-19T22:44:50;64.50;;;32.20;;
14992;SDS011;7592;51.088;13.732;2023-02-19T22:49:42;16.67;;;11.00;;
14992;SDS011;7592;51.088;13.732;2023-02-19T22:54:35;15.23;;;9.90;;
14992;SDS011;7592;51.088;13.732;2023-02-19T22:59:28;17.60;;;10.20;;
14992;SDS011;7592;51.088;13.732;2023-02-19T23:04:20;30.07;;;20.47;;
14992;SDS011;7592;51.088;13.732;2023-02-19T23:09:14;60.07;;;37.87;;
14992;SDS011;7592;51.088;13.732;2023-02-19T23:14:15;28.87;;;18.60;;
14992;SDS011;7592;51.088;13.732;2023-02-19T23:19:08;22.43;;;13.00;;
14992;SDS011;7592;51.088;13.732;2023-02-19T23:24:02;11.30;;;5.07;;
14992;SDS011;7592;51.088;13.732;2023-02-19T23:28:54;9.53;;;4.90;;
14992;SDS011;7592;51.088;13.732;2023-02-19T23:33:47;7.77;;;4.60;;
14992;SDS011;7592;51.088;13.732;2023-02-19T23:38:39;8.90;;;4.90;;
14992;SDS011;7592;51.088;13.732;2023-02-19T23:43:34;6.20;;;4.57;;
14992;SDS011;7592;51.088;13.732;2023-02-19T23:48:26;4.93;;;4.17;;
14992;SDS011;7592;51.088;13.732;2023-02-19T23:53:19;8.57;;;3.77;;
14992;SDS011;7592;51.088;13.732;2023-02-19T23:58:11;10.37;;;4.20;;
